Time;durP1;ratioP1;P1;durP2;ratioP2;P2;SDS_P1;SDS_P2;PMS_P1;PMS_P2;Temp;Humidity;BMP_temperature;BMP_pressure;BME280_temperature;BME280_humidity;BME280_pressure;Samples;Min_cycle;Max_cycle;Signal;HPM_P1;HPM_P2
2022/06/23 00:00:30;;;;;;;;;;;;;;;13.39;73.33;98362.06;4212638;28;20316;-70
2022/06/23 00:02:32;;;;;;;;;;;;;;;13.27;74.02;98366.06;4210993;28;19924;-70
2022/06/23 00:04:38;;;;;;;;;;;;;;;13.21;74.41;98368.44;4214288;28;19923;-70
2022/06/23 00:06:45;;;;;;;;;;;;;;;13.08;74.75;98363.66;4209045;28;19924;-70
2022/06/23 00:08:45;;;;;;;;;;;;;;;13.08;74.88;98363.66;4214135;28;19916;-70
2022/06/23 00:10:51;;;;;;;;;;;;;;;13.01;74.69;98360.88;4213892;28;20364;-70
2022/06/23 00:12:52;;;;;;;;;;;;;;;12.92;74.76;98350.19;4211422;28;20192;-70
2022/06/23 00:14:55;;;;;;;;;;;;;;;12.90;75.16;98355.31;4213111;28;20313;-70
2022/06/23 00:16:55;;;;;;;;;;;;;;;12.81;75.92;98358.47;4212719;28;20372;-70
2022/06/23 00:18:55;;;;;;;;;;;;;;;12.78;75.95;98350.94;4213029;28;19916;-70
2022/06/23 00:20:58;;;;;;;;;;;;;;;12.72;76.59;98351.75;4215776;28;20172;-70
2022/06/23 00:23:04;;;;;;;;;;;;;;;12.62;77.32;98364.41;4211676;28;19927;-70
2022/06/23 00:25:05;;;;;;;;;;;;;;;12.55;77.86;98376.28;4212316;28;19920;-70
2022/06/23 00:27:09;;;;;;;;;;;;;;;12.42;78.77;98365.97;4210665;28;19923;-70
2022/06/23 00:29:17;;;;;;;;;;;;;;;12.47;75.93;98362.81;4211706;28;19912;-70
2022/06/23 00:31:37;;;;;;;;;;;;;;;12.52;75.51;98362.44;4216059;28;19965;-70
2022/06/23 00:33:39;;;;;;;;;;;;;;;12.57;75.04;98364.78;4213194;28;19959;-70
2022/06/23 00:35:39;;;;;;;;;;;;;;;12.62;74.49;98368.00;4218905;28;19916;-70
2022/06/23 00:37:44;;;;;;;;;;;;;;;12.64;74.31;98370.38;4216293;28;20572;-70
2022/06/23 00:39:55;;;;;;;;;;;;;;;12.81;73.46;98377.91;4202991;28;19916;-70
2022/06/23 00:41:55;;;;;;;;;;;;;;;12.80;73.50;98376.34;4216199;28;19926;-70
2022/06/23 00:43:57;;;;;;;;;;;;;;;12.70;73.34;98371.56;4210299;28;19916;-70
2022/06/23 00:46:03;;;;;;;;;;;;;;;12.81;72.45;98374.34;4214647;28;19920;-70
2022/06/23 00:48:12;;;;;;;;;;;;;;;12.78;72.63;98375.94;4214899;28;20334;-70
2022/06/23 00:50:18;;;;;;;;;;;;;;;12.76;72.30;98371.97;4204825;28;19920;-70
2022/06/23 00:52:23;;;;;;;;;;;;;;;12.75;72.73;98365.63;4211295;28;19923;-70
2022/06/23 00:54:32;;;;;;;;;;;;;;;12.66;74.08;98368.00;4213200;28;20373;-70
2022/06/23 00:56:53;;;;;;;;;;;;;;;12.50;76.22;98371.16;4208922;28;19923;-70
2022/06/23 00:59:02;;;;;;;;;;;;;;;12.33;77.16;98372.69;4213762;28;19955;-70
2022/06/23 01:01:13;;;;;;;;;;;;;;;12.25;77.38;98379.41;4209271;28;19916;-70
2022/06/23 01:03:18;;;;;;;;;;;;;;;12.17;77.40;98382.56;4209535;28;19920;-70
2022/06/23 01:05:22;;;;;;;;;;;;;;;12.08;78.52;98382.88;4218653;28;19924;-70
2022/06/23 01:07:41;;;;;;;;;;;;;;;12.09;77.18;98393.63;4205277;28;19920;-70
2022/06/23 01:09:44;;;;;;;;;;;;;;;12.05;77.78;98389.22;4216431;28;19980;-70
2022/06/23 01:11:56;;;;;;;;;;;;;;;12.08;76.27;98389.25;4212006;28;20291;-70
2022/06/23 01:14:06;;;;;;;;;;;;;;;12.11;75.79;98401.53;4212228;28;19915;-70
2022/06/23 01:16:13;;;;;;;;;;;;;;;12.13;75.37;98399.16;4211046;28;19920;-70
2022/06/23 01:18:21;;;;;;;;;;;;;;;12.04;76.71;98391.19;4216222;28;20387;-70
2022/06/23 01:20:25;;;;;;;;;;;;;;;11.90;77.32;98391.13;4212684;28;19920;-70
2022/06/23 01:22:34;;;;;;;;;;;;;;;11.92;75.38;98385.22;4214543;28;19928;-70
2022/06/23 01:24:37;;;;;;;;;;;;;;;11.95;75.48;98395.53;4215031;28;20014;-70
2022/06/23 01:26:44;;;;;;;;;;;;;;;11.93;76.39;98384.81;4211342;28;19916;-70
2022/06/23 01:28:44;;;;;;;;;;;;;;;11.88;76.91;98389.94;4213119;28;19916;-69
2022/06/23 01:30:47;;;;;;;;;;;;;;;11.84;77.32;98381.63;4212119;28;20007;-70
2022/06/23 01:33:04;;;;;;;;;;;;;;;11.75;79.25;98384.72;4217568;28;19916;-70
2022/06/23 01:35:13;;;;;;;;;;;;;;;11.71;78.96;98388.63;4211105;28;19929;-69
2022/06/23 01:37:25;;;;;;;;;;;;;;;11.63;80.22;98381.47;4213395;27;19920;-69
2022/06/23 01:39:35;;;;;;;;;;;;;;;11.58;78.68;98379.03;4211463;28;19963;-70
2022/06/23 01:41:41;;;;;;;;;;;;;;;11.50;79.57;98381.81;4214481;28;19912;-69
2022/06/23 01:43:45;;;;;;;;;;;;;;;11.50;77.76;98380.97;4213245;28;19955;-69
2022/06/23 01:45:51;;;;;;;;;;;;;;;11.59;77.36;98380.66;4211983;28;19916;-69
2022/06/23 01:48:14;;;;;;;;;;;;;;;11.53;77.69;98374.69;4213211;28;19927;-69
2022/06/23 01:50:14;;;;;;;;;;;;;;;11.46;79.17;98374.63;4209965;28;19920;-69
2022/06/23 01:52:18;;;;;;;;;;;;;;;11.36;80.50;98378.94;4210431;28;20044;-69
2022/06/23 01:54:24;;;;;;;;;;;;;;;11.29;80.93;98383.63;4212889;28;20058;-69
2022/06/23 01:56:36;;;;;;;;;;;;;;;11.24;81.42;98387.53;4211823;28;20058;-70
2022/06/23 01:58:47;;;;;;;;;;;;;;;11.17;81.62;98380.00;4215573;28;19988;-69
2022/06/23 02:00:49;;;;;;;;;;;;;;;11.11;81.64;98386.25;4213097;28;19992;-69
2022/06/23 02:02:58;;;;;;;;;;;;;;;11.12;80.79;98382.31;4214221;28;20014;-69
2022/06/23 02:05:17;;;;;;;;;;;;;;;11.13;79.81;98387.47;4214101;28;20015;-69
2022/06/23 02:07:21;;;;;;;;;;;;;;;11.05;81.03;98387.78;4209529;28;19946;-69
2022/06/23 02:09:21;;;;;;;;;;;;;;;10.99;81.52;98401.19;4211243;28;19920;-69
2022/06/23 02:11:27;;;;;;;;;;;;;;;11.08;78.32;98398.88;4215749;28;19912;-69
2022/06/23 02:13:35;;;;;;;;;;;;;;;11.20;77.30;98403.34;4216116;28;19916;-69
2022/06/23 02:15:38;;;;;;;;;;;;;;;11.19;78.36;98399.78;4215858;28;19919;-69
2022/06/23 02:17:50;;;;;;;;;;;;;;;11.16;77.86;98406.06;4212109;28;20374;-69
2022/06/23 02:19:55;;;;;;;;;;;;;;;11.18;78.01;98403.72;4211165;28;19989;-69
2022/06/23 02:22:10;;;;;;;;;;;;;;;11.13;78.70;98406.06;4209752;28;20295;-69
2022/06/23 02:24:10;;;;;;;;;;;;;;;11.03;80.31;98404.78;4206409;28;19923;-69
2022/06/23 02:26:10;;;;;;;;;;;;;;;10.96;81.40;98410.25;4213596;28;20547;-69
2022/06/23 02:28:19;;;;;;;;;;;;;;;10.93;80.94;98397.19;4214338;28;19923;-69
2022/06/23 02:30:34;;;;;;;;;;;;;;;10.95;80.08;98392.84;4208659;28;19916;-69
2022/06/23 02:32:56;;;;;;;;;;;;;;;11.00;79.39;98394.47;4213302;28;19916;-69
2022/06/23 02:35:09;;;;;;;;;;;;;;;10.91;80.75;98397.56;4212179;28;19943;-69
2022/06/23 02:37:27;;;;;;;;;;;;;;;10.80;82.44;98399.44;4208674;28;19915;-69
2022/06/23 02:39:30;;;;;;;;;;;;;;;10.75;82.91;98399.78;4205789;28;19916;-69
2022/06/23 02:41:55;;;;;;;;;;;;;;;10.73;82.53;98399.38;4216215;28;19923;-69
2022/06/23 02:43:58;;;;;;;;;;;;;;;10.79;79.56;98405.38;4209261;28;20014;-69
2022/06/23 02:46:01;;;;;;;;;;;;;;;10.75;80.29;98407.28;4211559;28;19919;-69
2022/06/23 02:48:08;;;;;;;;;;;;;;;10.88;78.13;98408.59;4211421;28;19943;-69
2022/06/23 02:50:12;;;;;;;;;;;;;;;11.02;77.47;98410.72;4211955;28;19920;-69
2022/06/23 02:52:14;;;;;;;;;;;;;;;11.06;77.54;98409.56;4207910;28;20291;-69
2022/06/23 02:54:17;;;;;;;;;;;;;;;10.96;79.82;98411.06;4209625;28;20363;-69
2022/06/23 02:56:18;;;;;;;;;;;;;;;10.93;77.90;98413.81;4211042;28;19962;-69
2022/06/23 02:58:28;;;;;;;;;;;;;;;10.81;78.46;98411.31;4207547;28;19920;-69
2022/06/23 03:00:33;;;;;;;;;;;;;;;10.68;80.86;98410.81;4213751;28;20225;-68
2022/06/23 03:02:34;;;;;;;;;;;;;;;10.62;80.23;98412.31;4207194;28;20011;-69
2022/06/23 03:04:40;;;;;;;;;;;;;;;10.58;81.38;98415.03;4210293;28;20391;-69
2022/06/23 03:06:45;;;;;;;;;;;;;;;10.59;81.09;98415.81;4216470;28;19924;-69
2022/06/23 03:08:57;;;;;;;;;;;;;;;10.51;82.16;98411.38;4214089;28;19961;-69
2022/06/23 03:11:12;;;;;;;;;;;;;;;10.43;82.56;98410.53;4207294;28;20717;-68
2022/06/23 03:13:31;;;;;;;;;;;;;;;10.47;81.00;98416.09;4208266;28;20310;-68
2022/06/23 03:15:48;;;;;;;;;;;;;;;10.33;83.68;98417.53;4213046;28;20552;-68
2022/06/23 03:17:54;;;;;;;;;;;;;;;10.43;80.72;98416.06;4210928;28;20379;-68
2022/06/23 03:19:54;;;;;;;;;;;;;;;10.39;84.11;98424.31;4211010;28;19916;-69
2022/06/23 03:22:00;;;;;;;;;;;;;;;10.39;83.06;98418.00;4214124;28;19960;-69
2022/06/23 03:24:06;;;;;;;;;;;;;;;10.49;80.95;98420.06;4211795;28;19962;-69
2022/06/23 03:26:12;;;;;;;;;;;;;;;10.47;83.27;98413.34;4209327;28;20153;-69
2022/06/23 03:28:25;;;;;;;;;;;;;;;10.49;80.62;98413.75;4206723;28;19927;-69
2022/06/23 03:30:34;;;;;;;;;;;;;;;10.58;81.59;98425.31;4209961;28;19943;-69
2022/06/23 03:32:40;;;;;;;;;;;;;;;10.55;82.83;98426.06;4207484;28;20424;-69
2022/06/23 03:34:46;;;;;;;;;;;;;;;10.55;81.09;98431.59;4209079;28;20450;-69
2022/06/23 03:36:52;;;;;;;;;;;;;;;10.53;80.35;98433.97;4209168;28;19963;-69
2022/06/23 03:41:36;;;;;;;;;;;;;;;10.54;83.22;98430.81;4206677;28;20413;-69
2022/06/23 03:43:41;;;;;;;;;;;;;;;10.64;81.89;98432.88;4210800;28;19927;-69
2022/06/23 03:45:45;;;;;;;;;;;;;;;10.78;79.61;98442.53;4205138;28;20335;-69
2022/06/23 03:48:03;;;;;;;;;;;;;;;10.78;80.58;98429.47;4211931;28;19926;-69
2022/06/23 03:50:23;;;;;;;;;;;;;;;10.72;82.98;98438.50;4208682;28;19924;-69
2022/06/23 03:52:30;;;;;;;;;;;;;;;10.67;81.34;98439.63;4209560;28;19924;-69
2022/06/23 03:54:35;;;;;;;;;;;;;;;10.64;80.76;98449.50;4207279;28;19916;-69
2022/06/23 03:56:41;;;;;;;;;;;;;;;10.65;81.24;98448.31;4210242;28;19920;-69
2022/06/23 03:59:01;;;;;;;;;;;;;;;10.74;80.56;98449.97;4212603;28;19924;-69
2022/06/23 04:01:03;;;;;;;;;;;;;;;10.82;80.26;98454.41;4213863;28;19927;-69
2022/06/23 04:03:03;;;;;;;;;;;;;;;10.91;81.61;98450.16;4197199;28;20022;-69
2022/06/23 04:05:06;;;;;;;;;;;;;;;10.92;82.29;98456.47;4215904;28;19939;-69
2022/06/23 04:07:25;;;;;;;;;;;;;;;10.90;82.90;98450.53;4215251;28;20348;-69
2022/06/23 04:09:27;;;;;;;;;;;;;;;11.00;80.47;98460.09;4213314;28;20682;-69
2022/06/23 04:11:43;;;;;;;;;;;;;;;11.06;80.83;98458.59;4214321;28;20886;-69
2022/06/23 04:13:43;;;;;;;;;;;;;;;11.14;80.51;98454.72;4218817;28;19911;-69
2022/06/23 04:15:44;;;;;;;;;;;;;;;11.18;80.22;98450.81;4212751;28;20410;-69
2022/06/23 04:17:47;;;;;;;;;;;;;;;11.22;80.68;98457.16;4212237;28;20379;-69
2022/06/23 04:19:49;;;;;;;;;;;;;;;11.27;80.02;98461.56;4207602;28;20022;-69
2022/06/23 04:21:57;;;;;;;;;;;;;;;11.37;79.35;98460.84;4211629;28;19923;-69
2022/06/23 04:24:00;;;;;;;;;;;;;;;11.48;78.93;98458.16;4213497;28;19915;-69
2022/06/23 04:26:27;;;;;;;;;;;;;;;11.63;78.77;98459.06;4213209;28;19922;-69
2022/06/23 04:28:27;;;;;;;;;;;;;;;11.80;78.40;98452.88;4208356;28;19967;-69
2022/06/23 04:30:27;;;;;;;;;;;;;;;11.89;78.37;98449.75;4214438;28;19962;-69
2022/06/23 04:32:30;;;;;;;;;;;;;;;11.96;78.40;98458.09;4215464;28;19912;-69
2022/06/23 04:34:34;;;;;;;;;;;;;;;12.03;78.58;98452.59;4213749;28;19916;-69
2022/06/23 04:36:42;;;;;;;;;;;;;;;12.09;77.49;98451.84;4209642;27;20342;-69
2022/06/23 04:38:45;;;;;;;;;;;;;;;12.23;76.10;98462.19;4210843;28;20423;-69
2022/06/23 04:40:48;;;;;;;;;;;;;;;12.36;75.05;98457.13;4211735;28;20511;-69
2022/06/23 04:42:57;;;;;;;;;;;;;;;12.49;74.17;98449.22;4208995;28;20061;-69
2022/06/23 04:45:17;;;;;;;;;;;;;;;12.63;73.55;98455.63;4211117;28;19916;-69
2022/06/23 04:47:31;;;;;;;;;;;;;;;12.75;74.15;98456.47;4212332;28;19920;-69
2022/06/23 04:49:35;;;;;;;;;;;;;;;12.83;76.25;98449.72;4212488;28;19916;-69
2022/06/23 04:51:44;;;;;;;;;;;;;;;12.87;77.20;98454.09;4210204;28;19924;-69
2022/06/23 04:53:57;;;;;;;;;;;;;;;12.91;77.64;98446.56;4213249;28;19966;-69
2022/06/23 04:56:04;;;;;;;;;;;;;;;12.94;77.78;98450.53;4209481;28;19946;-69
2022/06/23 04:58:31;;;;;;;;;;;;;;;12.98;77.95;98456.88;4213991;28;19916;-69
2022/06/23 05:00:46;;;;;;;;;;;;;;;13.04;77.69;98457.28;4214022;28;19927;-69
2022/06/23 05:03:02;;;;;;;;;;;;;;;13.13;77.65;98454.91;4216846;28;19920;-69
2022/06/23 05:05:05;;;;;;;;;;;;;;;13.24;77.48;98449.38;4213784;28;19924;-69
2022/06/23 05:07:16;;;;;;;;;;;;;;;13.31;77.44;98461.31;4219107;28;19934;-69
2022/06/23 05:09:29;;;;;;;;;;;;;;;13.39;77.10;98457.34;4211824;28;19931;-69
2022/06/23 05:11:41;;;;;;;;;;;;;;;13.49;77.34;98464.91;4210726;28;20814;-69
2022/06/23 05:13:49;;;;;;;;;;;;;;;13.59;78.34;98462.50;4214774;28;19920;-69
2022/06/23 05:15:58;;;;;;;;;;;;;;;13.71;77.61;98460.09;4214519;28;20287;-69
2022/06/23 05:18:03;;;;;;;;;;;;;;;13.85;76.81;98458.50;4205614;28;20416;-69
2022/06/23 05:20:05;;;;;;;;;;;;;;;13.90;75.56;98449.72;4209032;28;20415;-69
2022/06/23 05:22:23;;;;;;;;;;;;;;;14.00;76.32;98458.06;4209033;28;19927;-70
2022/06/23 05:24:28;;;;;;;;;;;;;;;14.13;77.67;98457.63;4206554;28;19916;-69
2022/06/23 05:26:31;;;;;;;;;;;;;;;14.21;77.03;98453.63;4206082;28;20179;-69
2022/06/23 05:28:32;;;;;;;;;;;;;;;14.36;75.79;98466.28;4209174;28;19939;-69
2022/06/23 05:30:37;;;;;;;;;;;;;;;14.50;74.36;98482.97;4206432;28;20074;-69
2022/06/23 05:32:42;;;;;;;;;;;;;;;14.65;72.05;98485.69;4208112;28;20044;-69
2022/06/23 05:34:48;;;;;;;;;;;;;;;14.80;72.14;98496.34;4208030;28;19920;-69
2022/06/23 05:36:55;;;;;;;;;;;;;;;14.90;73.22;98491.94;4218473;28;20099;-69
2022/06/23 05:39:01;;;;;;;;;;;;;;;15.00;72.97;98485.50;4213573;28;19919;-70
2022/06/23 05:41:05;;;;;;;;;;;;;;;15.09;71.77;98479.47;4212789;28;19960;-70
2022/06/23 05:43:08;;;;;;;;;;;;;;;15.16;72.68;98479.44;4210185;28;19916;-70
2022/06/23 05:45:18;;;;;;;;;;;;;;;15.23;71.11;98475.81;4211989;28;19924;-70
2022/06/23 05:47:19;;;;;;;;;;;;;;;15.30;70.85;98464.56;4211915;28;19916;-70
2022/06/23 05:49:22;;;;;;;;;;;;;;;15.36;69.46;98474.09;4211655;28;20019;-70
2022/06/23 05:51:30;;;;;;;;;;;;;;;15.43;69.33;98472.03;4209922;28;19916;-70
2022/06/23 05:53:35;;;;;;;;;;;;;;;15.52;69.43;98476.38;4213064;28;19916;-70
2022/06/23 05:55:46;;;;;;;;;;;;;;;15.60;68.08;98473.09;4213545;28;20384;-70
2022/06/23 05:57:47;;;;;;;;;;;;;;;15.73;67.68;98470.63;4213218;28;20303;-70
2022/06/23 06:00:07;;;;;;;;;;;;;;;15.83;67.45;98468.94;4209132;28;19916;-70
2022/06/23 06:02:14;;;;;;;;;;;;;;;15.96;66.50;98464.41;4206323;28;20062;-69
2022/06/23 06:04:44;;;;;;;;;;;;;;;16.08;65.67;98466.69;4207883;28;19916;-69
2022/06/23 06:06:45;;;;;;;;;;;;;;;16.16;64.42;98473.78;4196888;28;20701;-70
2022/06/23 06:11:09;;;;;;;;;;;;;;;16.36;64.37;98482.31;4219274;28;19939;-70
2022/06/23 06:13:30;;;;;;;;;;;;;;;16.48;64.57;98475.41;4213513;28;19922;-70
2022/06/23 06:15:40;;;;;;;;;;;;;;;16.60;63.40;98474.84;4210227;28;19939;-70
2022/06/23 06:17:41;;;;;;;;;;;;;;;16.76;61.86;98465.91;4208493;28;19963;-70
2022/06/23 06:19:41;;;;;;;;;;;;;;;16.90;63.41;98462.13;4213152;28;20479;-69
2022/06/23 06:21:42;;;;;;;;;;;;;;;16.99;62.41;98468.78;4211357;28;19959;-70
2022/06/23 06:23:45;;;;;;;;;;;;;;;17.08;60.87;98460.66;4209056;28;20017;-70
2022/06/23 06:25:47;;;;;;;;;;;;;;;17.19;60.78;98473.66;4207489;28;20880;-70
2022/06/23 06:27:47;;;;;;;;;;;;;;;17.26;59.68;98484.75;4213143;28;19923;-70
2022/06/23 06:29:48;;;;;;;;;;;;;;;17.35;60.05;98485.00;4212370;28;20054;-70
2022/06/23 06:32:07;;;;;;;;;;;;;;;17.42;59.20;98482.88;4211295;28;19920;-70
2022/06/23 06:34:10;;;;;;;;;;;;;;;17.52;59.27;98486.72;4211112;28;19927;-70
2022/06/23 06:36:31;;;;;;;;;;;;;;;17.61;58.67;98484.19;4208851;27;19920;-70
2022/06/23 06:38:31;;;;;;;;;;;;;;;17.71;58.11;98479.66;4213473;28;19916;-70
2022/06/23 06:40:32;;;;;;;;;;;;;;;17.81;57.60;98486.28;4207936;28;20313;-70
2022/06/23 06:42:36;;;;;;;;;;;;;;;17.92;57.50;98484.09;4212259;28;19915;-70
2022/06/23 06:44:41;;;;;;;;;;;;;;;18.01;57.25;98480.72;4211351;28;20166;-70
2022/06/23 06:46:41;;;;;;;;;;;;;;;18.09;55.06;98484.97;4216750;28;19922;-70
2022/06/23 06:48:43;;;;;;;;;;;;;;;18.16;55.83;98482.06;4209604;28;20198;-70
2022/06/23 06:50:45;;;;;;;;;;;;;;;18.24;55.22;98487.09;4211957;28;19955;-70
2022/06/23 06:52:47;;;;;;;;;;;;;;;18.31;55.36;98476.97;4206987;28;20430;-70
2022/06/23 06:54:59;;;;;;;;;;;;;;;18.38;55.93;98482.44;4215290;28;19969;-70
2022/06/23 06:57:02;;;;;;;;;;;;;;;18.48;55.18;98479.41;4208830;28;20363;-70
2022/06/23 06:59:13;;;;;;;;;;;;;;;18.61;55.33;98478.75;4212021;28;20279;-70
2022/06/23 07:01:18;;;;;;;;;;;;;;;18.72;56.51;98485.75;4212786;28;20252;-70
2022/06/23 07:03:21;;;;;;;;;;;;;;;18.83;53.98;98485.53;4209567;28;20313;-70
2022/06/23 07:05:24;;;;;;;;;;;;;;;18.90;51.65;98478.97;4210929;28;19916;-70
2022/06/23 07:07:29;;;;;;;;;;;;;;;18.96;51.53;98486.44;4211937;28;19963;-70
2022/06/23 07:09:36;;;;;;;;;;;;;;;19.05;51.67;98486.66;4214921;28;20116;-70
2022/06/23 07:11:41;;;;;;;;;;;;;;;19.15;51.38;98490.44;4203463;28;20292;-70
2022/06/23 07:14:08;;;;;;;;;;;;;;;19.24;51.93;98484.22;4211159;28;20004;-70
2022/06/23 07:16:12;;;;;;;;;;;;;;;19.42;51.78;98478.19;4177929;28;19955;-70
2022/06/23 07:18:12;;;;;;;;;;;;;;;19.52;51.38;98483.53;4217099;28;20014;-70
2022/06/23 07:20:31;;;;;;;;;;;;;;;19.62;49.34;98476.13;4210017;28;19959;-70
2022/06/23 07:22:36;;;;;;;;;;;;;;;19.76;49.22;98480.56;4206835;28;19912;-70
2022/06/23 07:24:44;;;;;;;;;;;;;;;19.81;48.84;98480.84;4210366;28;19920;-70
2022/06/23 07:27:02;;;;;;;;;;;;;;;19.86;50.05;98474.72;4215733;28;20079;-70
2022/06/23 07:29:21;;;;;;;;;;;;;;;20.00;48.88;98481.94;4214980;28;19916;-71
2022/06/23 07:31:31;;;;;;;;;;;;;;;20.16;49.97;98481.91;4214544;28;19967;-70
2022/06/23 07:33:40;;;;;;;;;;;;;;;20.36;47.92;98478.19;4218376;28;19920;-70
2022/06/23 07:36:02;;;;;;;;;;;;;;;20.46;48.63;98483.53;4218048;28;20283;-70
2022/06/23 07:38:15;;;;;;;;;;;;;;;20.61;48.07;98483.94;4219681;28;20155;-70
2022/06/23 07:40:17;;;;;;;;;;;;;;;20.71;47.95;98479.22;4213258;28;19916;-71
2022/06/23 07:42:43;;;;;;;;;;;;;;;20.82;48.34;98470.47;4213444;28;20068;-70
2022/06/23 07:44:59;;;;;;;;;;;;;;;20.86;47.61;98466.31;4195807;28;20080;-70
2022/06/23 07:47:01;;;;;;;;;;;;;;;20.87;47.51;98473.53;4216930;28;20311;-70
2022/06/23 07:49:01;;;;;;;;;;;;;;;20.97;45.76;98463.97;4212795;28;19916;-70
2022/06/23 07:51:03;;;;;;;;;;;;;;;21.16;45.78;98462.16;4213453;28;20618;-70
2022/06/23 07:53:05;;;;;;;;;;;;;;;21.38;45.63;98461.53;4214829;28;20279;-71
2022/06/23 07:55:05;;;;;;;;;;;;;;;21.52;46.61;98463.88;4211573;28;20218;-71
2022/06/23 07:57:06;;;;;;;;;;;;;;;21.60;45.80;98442.72;4214135;28;20060;-71
2022/06/23 07:59:09;;;;;;;;;;;;;;;21.82;44.67;98449.16;4213617;28;20043;-71
2022/06/23 08:01:16;;;;;;;;;;;;;;;22.01;45.11;98447.31;4208424;28;19917;-71
2022/06/23 08:03:24;;;;;;;;;;;;;;;22.13;42.85;98452.16;4215662;28;19916;-70
2022/06/23 08:05:28;;;;;;;;;;;;;;;22.25;44.60;98450.50;4214545;28;19915;-71
2022/06/23 08:07:28;;;;;;;;;;;;;;;22.41;43.90;98458.78;4211086;28;19959;-71
2022/06/23 08:09:40;;;;;;;;;;;;;;;22.51;43.19;98448.38;4210199;28;19966;-71
2022/06/23 08:14:18;;;;;;;;;;;;;;;22.68;42.63;98448.97;4212765;28;19919;-71
2022/06/23 08:18:41;;;;;;;;;;;;;;;22.85;41.12;98450.34;4215118;28;19922;-71
2022/06/23 08:20:45;;;;;;;;;;;;;;;23.00;41.01;98447.72;4215199;28;19911;-71
2022/06/23 08:22:47;;;;;;;;;;;;;;;23.14;41.56;98443.56;4213850;28;19920;-71
2022/06/23 08:24:50;;;;;;;;;;;;;;;23.24;42.34;98445.16;4218717;28;19916;-71
2022/06/23 08:26:57;;;;;;;;;;;;;;;23.19;41.56;98438.13;4190579;28;19942;-71
2022/06/23 08:28:58;;;;;;;;;;;;;;;23.29;42.86;98440.97;4211173;28;20304;-71
2022/06/23 08:30:59;;;;;;;;;;;;;;;23.41;40.70;98442.88;4219460;28;19916;-71
2022/06/23 08:32:59;;;;;;;;;;;;;;;23.58;39.65;98437.75;4207849;28;19916;-71
2022/06/23 08:35:04;;;;;;;;;;;;;;;23.65;38.92;98432.63;4213156;28;19916;-71
2022/06/23 08:37:07;;;;;;;;;;;;;;;23.85;38.75;98437.84;4212718;27;19916;-71
2022/06/23 08:39:17;;;;;;;;;;;;;;;23.97;38.47;98438.94;4210035;28;20256;-71
2022/06/23 08:41:33;;;;;;;;;;;;;;;24.08;37.99;98440.06;4209586;28;20256;-71
2022/06/23 08:43:39;;;;;;;;;;;;;;;24.22;38.38;98432.19;4214826;28;20257;-71
2022/06/23 08:46:02;;;;;;;;;;;;;;;24.34;37.99;98429.25;4214566;28;19916;-71
2022/06/23 08:48:02;;;;;;;;;;;;;;;24.43;37.94;98431.28;4212060;28;19980;-71
2022/06/23 08:50:10;;;;;;;;;;;;;;;24.54;38.28;98439.28;4205215;28;19970;-71
2022/06/23 08:52:10;;;;;;;;;;;;;;;24.62;37.23;98429.97;4212892;28;20746;-71
2022/06/23 08:54:13;;;;;;;;;;;;;;;24.69;38.38;98433.75;4212192;28;19916;-71
2022/06/23 08:56:19;;;;;;;;;;;;;;;24.65;37.74;98419.75;4218656;28;19963;-71
2022/06/23 08:58:33;;;;;;;;;;;;;;;24.71;39.29;98423.53;4212696;28;20238;-71
2022/06/23 09:00:44;;;;;;;;;;;;;;;24.79;38.25;98429.63;4212584;28;19923;-71
2022/06/23 09:03:06;;;;;;;;;;;;;;;24.89;36.69;98425.50;4212721;28;20403;-71
2022/06/23 09:05:41;;;;;;;;;;;;;;;25.03;36.60;98426.91;4207592;28;19916;-71
2022/06/23 09:07:44;;;;;;;;;;;;;;;25.11;35.98;98417.59;4167461;28;20396;-71
2022/06/23 09:09:53;;;;;;;;;;;;;;;25.14;37.07;98421.53;4191921;28;20422;-71
2022/06/23 09:12:02;;;;;;;;;;;;;;;25.27;36.84;98424.94;4214265;28;19927;-71
2022/06/23 09:14:18;;;;;;;;;;;;;;;25.36;35.50;98419.22;4215036;28;19916;-71
2022/06/23 09:16:21;;;;;;;;;;;;;;;25.46;35.04;98423.56;4209710;28;19952;-71
2022/06/23 09:18:30;;;;;;;;;;;;;;;25.51;35.65;98410.03;4209322;28;19916;-71
2022/06/23 09:20:49;;;;;;;;;;;;;;;25.64;36.38;98414.16;4214509;28;19920;-71
2022/06/23 09:22:55;;;;;;;;;;;;;;;25.79;35.69;98407.81;4212208;28;20303;-71
2022/06/23 09:25:17;;;;;;;;;;;;;;;25.81;35.08;98399.59;4213318;28;19920;-71
2022/06/23 09:27:26;;;;;;;;;;;;;;;25.84;35.77;98402.28;4205596;28;20257;-71
2022/06/23 09:29:45;;;;;;;;;;;;;;;25.90;35.36;98408.84;4212658;28;19912;-71
2022/06/23 09:32:05;;;;;;;;;;;;;;;26.05;36.64;98397.53;4213261;28;19923;-71
2022/06/23 09:34:25;;;;;;;;;;;;;;;26.13;35.40;98392.28;4211730;28;20286;-71
2022/06/23 09:36:36;;;;;;;;;;;;;;;26.06;35.46;98396.25;4208388;28;19970;-71
2022/06/23 09:38:39;;;;;;;;;;;;;;;26.10;35.25;98391.19;4213249;28;20599;-71
2022/06/23 09:41:02;;;;;;;;;;;;;;;26.20;34.98;98392.69;4211812;28;19923;-71
2022/06/23 09:43:12;;;;;;;;;;;;;;;26.27;35.00;98391.53;4208697;28;20310;-71
2022/06/23 09:45:22;;;;;;;;;;;;;;;26.44;35.15;98386.19;4212049;28;20345;-71
2022/06/23 09:47:34;;;;;;;;;;;;;;;26.53;34.07;98384.03;4211513;28;19999;-71
2022/06/23 09:49:43;;;;;;;;;;;;;;;26.64;33.76;98383.44;4213289;28;19919;-71
2022/06/23 09:52:02;;;;;;;;;;;;;;;26.60;33.53;98380.03;4213369;28;19920;-71
2022/06/23 09:54:21;;;;;;;;;;;;;;;26.44;34.81;98381.28;4213073;28;19920;-71
2022/06/23 09:56:33;;;;;;;;;;;;;;;26.35;34.32;98375.69;4213222;28;20683;-71
2022/06/23 09:58:52;;;;;;;;;;;;;;;26.27;34.59;98374.50;4210257;28;19926;-71
2022/06/23 10:01:11;;;;;;;;;;;;;;;26.38;34.72;98366.22;4217961;28;20539;-71
2022/06/23 10:03:29;;;;;;;;;;;;;;;26.53;33.92;98371.91;4212079;28;19924;-71
2022/06/23 10:05:51;;;;;;;;;;;;;;;26.66;32.73;98360.28;4214544;28;20240;-71
2022/06/23 10:08:10;;;;;;;;;;;;;;;26.63;31.85;98355.56;4210832;28;20344;-71
2022/06/23 10:10:10;;;;;;;;;;;;;;;26.69;32.39;98362.13;4209734;28;19982;-71
2022/06/23 10:12:20;;;;;;;;;;;;;;;26.77;32.68;98364.06;4206970;28;19916;-71
2022/06/23 10:14:20;;;;;;;;;;;;;;;26.85;33.18;98358.78;4211510;28;20636;-71
2022/06/23 10:16:43;;;;;;;;;;;;;;;26.96;32.71;98358.16;4204517;28;19973;-71
2022/06/23 10:19:02;;;;;;;;;;;;;;;27.11;32.04;98351.22;4215712;28;20394;-71
2022/06/23 10:21:10;;;;;;;;;;;;;;;27.10;31.78;98343.97;4212028;28;19927;-72
2022/06/23 10:23:13;;;;;;;;;;;;;;;27.21;30.81;98353.91;4218317;28;20234;-71
2022/06/23 10:25:22;;;;;;;;;;;;;;;27.25;30.63;98355.28;4209182;28;20351;-71
2022/06/23 10:27:41;;;;;;;;;;;;;;;27.37;32.98;98348.47;4210698;28;19941;-71
2022/06/23 10:29:58;;;;;;;;;;;;;;;27.53;32.90;98360.56;4210334;28;19916;-71
2022/06/23 10:32:16;;;;;;;;;;;;;;;27.63;31.03;98348.56;4211418;28;19923;-71
2022/06/23 10:34:41;;;;;;;;;;;;;;;27.71;30.96;98346.88;4211216;28;19958;-71
2022/06/23 10:37:00;;;;;;;;;;;;;;;27.84;31.75;98340.84;4207309;28;19922;-71
2022/06/23 10:39:09;;;;;;;;;;;;;;;28.01;31.50;98337.41;4208331;28;19916;-71
2022/06/23 10:41:17;;;;;;;;;;;;;;;28.06;31.18;98336.72;4209152;28;19916;-71
2022/06/23 10:43:18;;;;;;;;;;;;;;;28.08;29.99;98332.06;4211417;28;19920;-71
2022/06/23 10:45:18;;;;;;;;;;;;;;;28.12;30.71;98337.53;4211010;28;20382;-71
2022/06/23 10:47:21;;;;;;;;;;;;;;;28.07;30.20;98327.66;4212114;28;19916;-71
2022/06/23 10:49:24;;;;;;;;;;;;;;;28.10;30.97;98320.19;4210202;28;19924;-71
2022/06/23 10:51:43;;;;;;;;;;;;;;;28.05;31.40;98318.84;4209141;28;19919;-71
2022/06/23 10:53:58;;;;;;;;;;;;;;;28.10;31.76;98311.66;4213920;28;19972;-71
2022/06/23 10:56:07;;;;;;;;;;;;;;;27.73;29.82;98317.22;4207304;28;20249;-71
2022/06/23 10:58:31;;;;;;;;;;;;;;;27.88;32.15;98315.81;4213005;28;20338;-71
2022/06/23 11:00:37;;;;;;;;;;;;;;;28.18;31.20;98307.88;4200197;28;19941;-71
2022/06/23 11:02:58;;;;;;;;;;;;;;;28.31;29.52;98303.88;4217025;28;20245;-71
2022/06/23 11:05:07;;;;;;;;;;;;;;;28.42;30.16;98301.13;4216904;28;19924;-72
2022/06/23 11:07:10;;;;;;;;;;;;;;;28.61;30.60;98305.16;4215313;28;19974;-71
2022/06/23 11:09:10;;;;;;;;;;;;;;;28.58;28.73;98291.19;4213682;28;19912;-71
2022/06/23 11:11:14;;;;;;;;;;;;;;;28.67;29.61;98280.38;4216897;28;20267;-71
2022/06/23 11:13:29;;;;;;;;;;;;;;;28.62;29.75;98286.03;4216975;28;20382;-72
2022/06/23 11:15:39;;;;;;;;;;;;;;;28.76;30.26;98288.72;4215236;28;20193;-72
2022/06/23 11:17:39;;;;;;;;;;;;;;;28.89;30.50;98294.00;4214380;28;19953;-72